Omaha, Arkansas
Current Conditions -  °F | °C
As of 11:15 PM on Wednesday 22 Oct 2014 (Local Time) from KBBG Reporting Station
Broken Clouds Broken Clouds  
Wind Chill: 52°   Ceiling: 3500
Heat Index: 52°   Visibility: 10mi
Dew Point: 46°   Wind: 5mph
Humidity: 82%   Direction: 140°SE
Pressure: 30.2"   Gusts: NA
Location:  36.45°N, 93.19°W
Report Text: KBBG 230415Z AUTO 14004KT 10SM BKN035 11/08 A3020 RMK AO2
Loading
Personal Weather Stations






























Interactive Weather Map
Tropical Storm Tracking
New forecast layout! Learn more

10-Day Weather Forecast

Advertisements
Track Severe Weather on mobile